Аэропорт: Хомутово. Южно-Сахалинск

ICAO: UHSS

METAR:
2018/07/16 20:00
UHSS 162000Z 36005G10MPS 9999 FEW006 BKN033 10/09 Q1012 R01/CLRD70 NOSIG RMK MT OBSC QFE758/1010
METAR:
2018/07/16 18:21
TAF UHSS 161700Z 1618/1724 36006MPS 9999 BKN006 BKN030CB OVC100 
      TEMPO 1618/1624 1400 BR BKN003 BKN030CB